sensor_id;sensor_type;location;lat;lon;timestamp;pressure;altitude;pressure_sealevel;temperature
54306;BMP280;50434;45.188;5.712;2022-09-09T00:00:18;99246.41;;;21.64
54306;BMP280;50434;45.188;5.712;2022-09-09T00:03:02;99247.78;;;21.63
54306;BMP280;50434;45.188;5.712;2022-09-09T00:05:41;99250.56;;;21.63
54306;BMP280;50434;45.188;5.712;2022-09-09T00:08:17;99253.16;;;21.61
54306;BMP280;50434;45.188;5.712;2022-09-09T00:10:43;99259.94;;;21.58
54306;BMP280;50434;45.188;5.712;2022-09-09T00:13:22;99250.03;;;21.55
54306;BMP280;50434;45.188;5.712;2022-09-09T00:18:29;99255.31;;;21.51
54306;BMP280;50434;45.188;5.712;2022-09-09T00:21:03;99260.88;;;21.51
54306;BMP280;50434;45.188;5.712;2022-09-09T00:23:34;99259.28;;;21.48
54306;BMP280;50434;45.188;5.712;2022-09-09T00:28:38;99258.69;;;21.49
54306;BMP280;50434;45.188;5.712;2022-09-09T00:31:12;99253.84;;;21.50
54306;BMP280;50434;45.188;5.712;2022-09-09T00:33:37;99245.03;;;21.42
54306;BMP280;50434;45.188;5.712;2022-09-09T00:36:12;99248.38;;;21.40
54306;BMP280;50434;45.188;5.712;2022-09-09T00:38:43;99249.09;;;21.41
54306;BMP280;50434;45.188;5.712;2022-09-09T00:44:03;99241.19;;;21.47
54306;BMP280;50434;45.188;5.712;2022-09-09T00:46:58;99251.56;;;21.46
54306;BMP280;50434;45.188;5.712;2022-09-09T00:57:51;99242.59;;;21.36
54306;BMP280;50434;45.188;5.712;2022-09-09T01:00:25;99252.81;;;21.34
54306;BMP280;50434;45.188;5.712;2022-09-09T01:10:51;99242.88;;;21.19
54306;BMP280;50434;45.188;5.712;2022-09-09T01:13:29;99240.94;;;21.22
54306;BMP280;50434;45.188;5.712;2022-09-09T01:15:58;99247.78;;;21.21
54306;BMP280;50434;45.188;5.712;2022-09-09T01:18:34;99239.38;;;21.19
54306;BMP280;50434;45.188;5.712;2022-09-09T01:28:55;99245.22;;;21.13
54306;BMP280;50434;45.188;5.712;2022-09-09T01:31:30;99244.50;;;21.13
54306;BMP280;50434;45.188;5.712;2022-09-09T01:33:56;99242.94;;;21.10
54306;BMP280;50434;45.188;5.712;2022-09-09T01:38:57;99251.56;;;21.04
54306;BMP280;50434;45.188;5.712;2022-09-09T01:41:22;99244.56;;;21.03
54306;BMP280;50434;45.188;5.712;2022-09-09T01:43:48;99249.25;;;21.01
54306;BMP280;50434;45.188;5.712;2022-09-09T01:46:14;99249.41;;;21.03
54306;BMP280;50434;45.188;5.712;2022-09-09T01:48:41;99246.34;;;20.99
54306;BMP280;50434;45.188;5.712;2022-09-09T01:51:08;99251.22;;;20.89
54306;BMP280;50434;45.188;5.712;2022-09-09T01:53:36;99256.84;;;20.79
54306;BMP280;50434;45.188;5.712;2022-09-09T01:59:40;99265.59;;;20.76
54306;BMP280;50434;45.188;5.712;2022-09-09T02:02:13;99261.66;;;20.79
54306;BMP280;50434;45.188;5.712;2022-09-09T02:04:48;99257.25;;;20.76
54306;BMP280;50434;45.188;5.712;2022-09-09T02:07:23;99271.44;;;20.70
54306;BMP280;50434;45.188;5.712;2022-09-09T02:09:59;99272.50;;;20.65
54306;BMP280;50434;45.188;5.712;2022-09-09T02:12:28;99264.91;;;20.66
54306;BMP280;50434;45.188;5.712;2022-09-09T02:15:09;99261.53;;;20.67
54306;BMP280;50434;45.188;5.712;2022-09-09T02:17:38;99260.34;;;20.70
54306;BMP280;50434;45.188;5.712;2022-09-09T02:20:09;99263.72;;;20.69
54306;BMP280;50434;45.188;5.712;2022-09-09T02:22:39;99270.84;;;20.72
54306;BMP280;50434;45.188;5.712;2022-09-09T02:25:06;99258.19;;;20.69
54306;BMP280;50434;45.188;5.712;2022-09-09T02:27:33;99265.03;;;20.68
54306;BMP280;50434;45.188;5.712;2022-09-09T02:30:01;99260.09;;;20.66
54306;BMP280;50434;45.188;5.712;2022-09-09T02:32:29;99259.09;;;20.62
54306;BMP280;50434;45.188;5.712;2022-09-09T02:35:06;99254.13;;;20.60
54306;BMP280;50434;45.188;5.712;2022-09-09T02:37:37;99254.75;;;20.59
54306;BMP280;50434;45.188;5.712;2022-09-09T02:40:08;99249.03;;;20.57
54306;BMP280;50434;45.188;5.712;2022-09-09T02:42:45;99257.50;;;20.59
54306;BMP280;50434;45.188;5.712;2022-09-09T02:45:19;99261.84;;;20.62
54306;BMP280;50434;45.188;5.712;2022-09-09T02:47:54;99258.22;;;20.59
54306;BMP280;50434;45.188;5.712;2022-09-09T02:50:26;99256.31;;;20.62
54306;BMP280;50434;45.188;5.712;2022-09-09T02:53:14;99261.44;;;20.56
54306;BMP280;50434;45.188;5.712;2022-09-09T02:55:51;99260.59;;;20.53
54306;BMP280;50434;45.188;5.712;2022-09-09T02:58:20;99256.06;;;20.48
54306;BMP280;50434;45.188;5.712;2022-09-09T03:00:48;99256.81;;;20.48
54306;BMP280;50434;45.188;5.712;2022-09-09T03:03:16;99256.53;;;20.44
54306;BMP280;50434;45.188;5.712;2022-09-09T03:05:42;99260.06;;;20.35
54306;BMP280;50434;45.188;5.712;2022-09-09T03:08:08;99253.06;;;20.34
54306;BMP280;50434;45.188;5.712;2022-09-09T03:10:34;99261.06;;;20.30
54306;BMP280;50434;45.188;5.712;2022-09-09T03:13:00;99266.94;;;20.25
54306;BMP280;50434;45.188;5.712;2022-09-09T03:15:26;99270.44;;;20.25
54306;BMP280;50434;45.188;5.712;2022-09-09T03:17:55;99270.44;;;20.25
54306;BMP280;50434;45.188;5.712;2022-09-09T03:20:23;99266.81;;;20.23
54306;BMP280;50434;45.188;5.712;2022-09-09T03:22:48;99271.75;;;20.24
54306;BMP280;50434;45.188;5.712;2022-09-09T03:25:13;99273.50;;;20.20
54306;BMP280;50434;45.188;5.712;2022-09-09T03:27:39;99272.78;;;20.19
54306;BMP280;50434;45.188;5.712;2022-09-09T03:30:05;99266.97;;;20.15
54306;BMP280;50434;45.188;5.712;2022-09-09T03:32:31;99268.56;;;20.18
54306;BMP280;50434;45.188;5.712;2022-09-09T03:34:56;99277.44;;;20.17
54306;BMP280;50434;45.188;5.712;2022-09-09T03:37:22;99274.25;;;20.11
54306;BMP280;50434;45.188;5.712;2022-09-09T03:39:48;99273.41;;;20.08
54306;BMP280;50434;45.188;5.712;2022-09-09T03:42:14;99278.66;;;20.04
54306;BMP280;50434;45.188;5.712;2022-09-09T03:44:40;99287.66;;;20.05
54306;BMP280;50434;45.188;5.712;2022-09-09T03:47:07;99281.41;;;20.04
54306;BMP280;50434;45.188;5.712;2022-09-09T03:49:32;99281.41;;;20.04
54306;BMP280;50434;45.188;5.712;2022-09-09T03:51:58;99283.91;;;20.00
54306;BMP280;50434;45.188;5.712;2022-09-09T03:54:24;99278.06;;;19.96
54306;BMP280;50434;45.188;5.712;2022-09-09T03:56:50;99284.31;;;19.97
54306;BMP280;50434;45.188;5.712;2022-09-09T03:59:16;99289.13;;;19.87
54306;BMP280;50434;45.188;5.712;2022-09-09T04:01:41;99296.00;;;19.86
54306;BMP280;50434;45.188;5.712;2022-09-09T04:04:08;99294.97;;;19.81
54306;BMP280;50434;45.188;5.712;2022-09-09T04:06:34;99289.44;;;19.81
54306;BMP280;50434;45.188;5.712;2022-09-09T04:09:00;99291.63;;;19.73
54306;BMP280;50434;45.188;5.712;2022-09-09T04:11:27;99295.84;;;19.74
54306;BMP280;50434;45.188;5.712;2022-09-09T04:13:53;99290.16;;;19.72
54306;BMP280;50434;45.188;5.712;2022-09-09T04:16:18;99295.69;;;19.72
54306;BMP280;50434;45.188;5.712;2022-09-09T04:18:45;99293.81;;;19.75
54306;BMP280;50434;45.188;5.712;2022-09-09T04:21:10;99295.41;;;19.78
54306;BMP280;50434;45.188;5.712;2022-09-09T04:23:37;99289.13;;;19.77
54306;BMP280;50434;45.188;5.712;2022-09-09T04:26:04;99290.16;;;19.72
54306;BMP280;50434;45.188;5.712;2022-09-09T04:28:32;99289.75;;;19.66
54306;BMP280;50434;45.188;5.712;2022-09-09T04:31:07;99291.59;;;19.64
54306;BMP280;50434;45.188;5.712;2022-09-09T04:33:34;99296.41;;;19.63
54306;BMP280;50434;45.188;5.712;2022-09-09T04:35:59;99302.56;;;19.62
54306;BMP280;50434;45.188;5.712;2022-09-09T04:38:25;99299.78;;;19.62
54306;BMP280;50434;45.188;5.712;2022-09-09T04:40:51;99293.94;;;19.58
54306;BMP280;50434;45.188;5.712;2022-09-09T04:43:17;99299.06;;;19.61
54306;BMP280;50434;45.188;5.712;2022-09-09T04:45:47;99301.81;;;19.61
54306;BMP280;50434;45.188;5.712;2022-09-09T04:48:12;99301.53;;;19.57
54306;BMP280;50434;45.188;5.712;2022-09-09T04:50:38;99303.69;;;19.49
54306;BMP280;50434;45.188;5.712;2022-09-09T04:53:04;99302.53;;;19.42
54306;BMP280;50434;45.188;5.712;2022-09-09T04:55:30;99299.28;;;19.36
54306;BMP280;50434;45.188;5.712;2022-09-09T04:57:56;99304.09;;;19.36
54306;BMP280;50434;45.188;5.712;2022-09-09T05:00:23;99307.44;;;19.34
54306;BMP280;50434;45.188;5.712;2022-09-09T05:02:48;99307.00;;;19.38
54306;BMP280;50434;45.188;5.712;2022-09-09T05:05:13;99310.06;;;19.32
54306;BMP280;50434;45.188;5.712;2022-09-09T05:07:39;99306.88;;;19.36
54306;BMP280;50434;45.188;5.712;2022-09-09T05:10:04;99305.69;;;19.29
54306;BMP280;50434;45.188;5.712;2022-09-09T05:12:31;99314.56;;;19.28
54306;BMP280;50434;45.188;5.712;2022-09-09T05:14:57;99311.50;;;19.33
54306;BMP280;50434;45.188;5.712;2022-09-09T05:17:22;99317.22;;;19.35
54306;BMP280;50434;45.188;5.712;2022-09-09T05:19:48;99323.31;;;19.34
54306;BMP280;50434;45.188;5.712;2022-09-09T05:22:18;99325.50;;;19.35
54306;BMP280;50434;45.188;5.712;2022-09-09T05:24:45;99329.00;;;19.36
54306;BMP280;50434;45.188;5.712;2022-09-09T05:27:11;99332.03;;;19.30
54306;BMP280;50434;45.188;5.712;2022-09-09T05:29:37;99327.09;;;19.29
54306;BMP280;50434;45.188;5.712;2022-09-09T05:32:04;99333.34;;;19.29
54306;BMP280;50434;45.188;5.712;2022-09-09T05:34:29;99333.03;;;19.25
54306;BMP280;50434;45.188;5.712;2022-09-09T05:36:54;99339.84;;;19.15
54306;BMP280;50434;45.188;5.712;2022-09-09T05:39:20;99345.53;;;19.17
54306;BMP280;50434;45.188;5.712;2022-09-09T05:41:45;99347.25;;;19.12
54306;BMP280;50434;45.188;5.712;2022-09-09T05:44:10;99347.25;;;19.12
54306;BMP280;50434;45.188;5.712;2022-09-09T05:46:36;99354.41;;;19.15
54306;BMP280;50434;45.188;5.712;2022-09-09T05:49:02;99358.19;;;19.20
54306;BMP280;50434;45.188;5.712;2022-09-09T05:51:28;99354.94;;;19.14
54306;BMP280;50434;45.188;5.712;2022-09-09T05:53:55;99352.63;;;19.10
54306;BMP280;50434;45.188;5.712;2022-09-09T05:56:26;99355.38;;;19.10
54306;BMP280;50434;45.188;5.712;2022-09-09T05:58:52;99358.31;;;19.12
54306;BMP280;50434;45.188;5.712;2022-09-09T06:03:47;99364.56;;;19.13
54306;BMP280;50434;45.188;5.712;2022-09-09T06:06:18;99359.34;;;19.17
54306;BMP280;50434;45.188;5.712;2022-09-09T06:08:47;99360.81;;;19.18
54306;BMP280;50434;45.188;5.712;2022-09-09T06:11:15;99358.91;;;19.20
54306;BMP280;50434;45.188;5.712;2022-09-09T06:13:41;99362.25;;;19.19
54306;BMP280;50434;45.188;5.712;2022-09-09T06:16:11;99358.75;;;19.09
54306;BMP280;50434;45.188;5.712;2022-09-09T06:18:37;99374.59;;;19.08
54306;BMP280;50434;45.188;5.712;2022-09-09T06:21:05;99364.28;;;19.09
54306;BMP280;50434;45.188;5.712;2022-09-09T06:23:32;99369.81;;;19.09
54306;BMP280;50434;45.188;5.712;2022-09-09T06:26:06;99368.19;;;19.06
54306;BMP280;50434;45.188;5.712;2022-09-09T06:28:33;99368.66;;;19.12
54306;BMP280;50434;45.188;5.712;2022-09-09T06:31:00;99361.09;;;19.12
54306;BMP280;50434;45.188;5.712;2022-09-09T06:33:25;99367.47;;;19.15
54306;BMP280;50434;45.188;5.712;2022-09-09T06:35:52;99358.06;;;19.18
54306;BMP280;50434;45.188;5.712;2022-09-09T06:38:18;99360.22;;;19.19
54306;BMP280;50434;45.188;5.712;2022-09-09T06:40:53;99367.19;;;19.20
54306;BMP280;50434;45.188;5.712;2022-09-09T06:43:20;99368.25;;;19.25
54306;BMP280;50434;45.188;5.712;2022-09-09T06:48:29;99380.78;;;19.26
54306;BMP280;50434;45.188;5.712;2022-09-09T06:51:04;99386.44;;;19.28
54306;BMP280;50434;45.188;5.712;2022-09-09T06:53:35;99387.19;;;19.28
54306;BMP280;50434;45.188;5.712;2022-09-09T06:56:02;99384.56;;;19.30
54306;BMP280;50434;45.188;5.712;2022-09-09T06:58:29;99382.66;;;19.33
54306;BMP280;50434;45.188;5.712;2022-09-09T07:01:05;99388.19;;;19.33
54306;BMP280;50434;45.188;5.712;2022-09-09T07:03:31;99382.22;;;19.27
54306;BMP280;50434;45.188;5.712;2022-09-09T07:05:57;99387.91;;;19.29
54306;BMP280;50434;45.188;5.712;2022-09-09T07:08:23;99381.22;;;19.32
54306;BMP280;50434;45.188;5.712;2022-09-09T07:10:51;99379.34;;;19.34
54306;BMP280;50434;45.188;5.712;2022-09-09T07:13:23;99371.78;;;19.35
54306;BMP280;50434;45.188;5.712;2022-09-09T07:15:50;99364.63;;;19.32
54306;BMP280;50434;45.188;5.712;2022-09-09T07:18:16;99367.84;;;19.38
54306;BMP280;50434;45.188;5.712;2022-09-09T07:20:41;99368.72;;;19.40
54306;BMP280;50434;45.188;5.712;2022-09-09T07:23:06;99380.22;;;19.46
54306;BMP280;50434;45.188;5.712;2022-09-09T07:25:32;99378.66;;;19.53
54306;BMP280;50434;45.188;5.712;2022-09-09T07:27:57;99376.34;;;19.59
54306;BMP280;50434;45.188;5.712;2022-09-09T07:30:23;99376.63;;;19.63
54306;BMP280;50434;45.188;5.712;2022-09-09T07:32:51;99380.31;;;19.66
54306;BMP280;50434;45.188;5.712;2022-09-09T07:35:16;99370.84;;;19.69
54306;BMP280;50434;45.188;5.712;2022-09-09T07:37:42;99366.16;;;19.71
54306;BMP280;50434;45.188;5.712;2022-09-09T07:40:07;99372.88;;;19.78
54306;BMP280;50434;45.188;5.712;2022-09-09T07:42:33;99380.19;;;19.83
54306;BMP280;50434;45.188;5.712;2022-09-09T07:44:58;99386.88;;;19.89
54306;BMP280;50434;45.188;5.712;2022-09-09T07:47:24;99384.69;;;19.97
54306;BMP280;50434;45.188;5.712;2022-09-09T07:49:50;99387.44;;;19.97
54306;BMP280;50434;45.188;5.712;2022-09-09T07:52:15;99380.91;;;20.02
54306;BMP280;50434;45.188;5.712;2022-09-09T07:54:41;99379.59;;;20.03
54306;BMP280;50434;45.188;5.712;2022-09-09T07:57:07;99379.16;;;20.07
54306;BMP280;50434;45.188;5.712;2022-09-09T07:59:32;99369.41;;;20.06
54306;BMP280;50434;45.188;5.712;2022-09-09T08:01:58;99369.13;;;20.11
54306;BMP280;50434;45.188;5.712;2022-09-09T08:04:25;99370.16;;;20.16
54306;BMP280;50434;45.188;5.712;2022-09-09T08:06:56;99372.03;;;20.23
54306;BMP280;50434;45.188;5.712;2022-09-09T08:09:23;99370.56;;;20.31
54306;BMP280;50434;45.188;5.712;2022-09-09T08:11:54;99368.94;;;20.38
54306;BMP280;50434;45.188;5.712;2022-09-09T08:14:22;99358.00;;;20.50
54306;BMP280;50434;45.188;5.712;2022-09-09T08:16:49;99360.88;;;20.52
54306;BMP280;50434;45.188;5.712;2022-09-09T08:19:15;99365.56;;;20.59
54306;BMP280;50434;45.188;5.712;2022-09-09T08:21:43;99367.00;;;20.60
54306;BMP280;50434;45.188;5.712;2022-09-09T08:24:10;99356.91;;;20.64
54306;BMP280;50434;45.188;5.712;2022-09-09T08:26:38;99363.75;;;20.73
54306;BMP280;50434;45.188;5.712;2022-09-09T08:29:05;99372.06;;;20.73
54306;BMP280;50434;45.188;5.712;2022-09-09T08:31:36;99378.16;;;20.81
54306;BMP280;50434;45.188;5.712;2022-09-09T08:34:03;99385.59;;;20.88
54306;BMP280;50434;45.188;5.712;2022-09-09T08:36:30;99373.03;;;20.87
54306;BMP280;50434;45.188;5.712;2022-09-09T08:38:59;99373.00;;;20.96
54306;BMP280;50434;45.188;5.712;2022-09-09T08:47:17;99375.25;;;21.19
54306;BMP280;50434;45.188;5.712;2022-09-09T08:55:25;99375.78;;;21.27
54306;BMP280;50434;45.188;5.712;2022-09-09T08:57:55;99366.94;;;21.40
54306;BMP280;50434;45.188;5.712;2022-09-09T09:00:21;99372.44;;;21.49
54306;BMP280;50434;45.188;5.712;2022-09-09T09:03:00;99373.69;;;21.58
54306;BMP280;50434;45.188;5.712;2022-09-09T09:10:51;99367.06;;;21.84
54306;BMP280;50434;45.188;5.712;2022-09-09T09:16:38;99367.22;;;21.86
54306;BMP280;50434;45.188;5.712;2022-09-09T09:19:08;99367.78;;;22.06
54306;BMP280;50434;45.188;5.712;2022-09-09T09:21:43;99375.69;;;22.21
54306;BMP280;50434;45.188;5.712;2022-09-09T09:24:55;99371.41;;;22.52
54306;BMP280;50434;45.188;5.712;2022-09-09T09:27:51;99365.50;;;22.81
54306;BMP280;50434;45.188;5.712;2022-09-09T09:30:20;99355.13;;;22.93
54306;BMP280;50434;45.188;5.712;2022-09-09T09:33:02;99347.47;;;22.94
54306;BMP280;50434;45.188;5.712;2022-09-09T09:35:31;99342.56;;;22.92
54306;BMP280;50434;45.188;5.712;2022-09-09T09:37:57;99336.50;;;22.96
54306;BMP280;50434;45.188;5.712;2022-09-09T09:40:22;99351.00;;;23.06
54306;BMP280;50434;45.188;5.712;2022-09-09T09:42:57;99349.28;;;23.01
54306;BMP280;50434;45.188;5.712;2022-09-09T09:45:33;99343.38;;;23.06
54306;BMP280;50434;45.188;5.712;2022-09-09T09:48:05;99343.13;;;23.14
54306;BMP280;50434;45.188;5.712;2022-09-09T09:50:31;99342.03;;;23.19
54306;BMP280;50434;45.188;5.712;2022-09-09T09:53:03;99337.88;;;23.31
54306;BMP280;50434;45.188;5.712;2022-09-09T09:55:33;99347.94;;;23.25
54306;BMP280;50434;45.188;5.712;2022-09-09T09:58:05;99345.16;;;23.25
54306;BMP280;50434;45.188;5.712;2022-09-09T10:00:30;99338.63;;;23.32
54306;BMP280;50434;45.188;5.712;2022-09-09T10:02:56;99332.06;;;23.39
54306;BMP280;50434;45.188;5.712;2022-09-09T10:05:27;99334.03;;;23.36
54306;BMP280;50434;45.188;5.712;2022-09-09T10:08:13;99334.03;;;23.36
54306;BMP280;50434;45.188;5.712;2022-09-09T10:10:51;99327.19;;;23.51
54306;BMP280;50434;45.188;5.712;2022-09-09T10:16:22;99327.09;;;23.74
54306;BMP280;50434;45.188;5.712;2022-09-09T10:18:59;99329.00;;;23.83
54306;BMP280;50434;45.188;5.712;2022-09-09T10:21:35;99325.22;;;23.90
54306;BMP280;50434;45.188;5.712;2022-09-09T10:26:58;99319.16;;;24.07
54306;BMP280;50434;45.188;5.712;2022-09-09T10:40:26;99332.16;;;24.03
54306;BMP280;50434;45.188;5.712;2022-09-09T10:54:24;99314.63;;;24.00
54306;BMP280;50434;45.188;5.712;2022-09-09T10:56:58;99316.38;;;24.07
54306;BMP280;50434;45.188;5.712;2022-09-09T10:59:34;99312.38;;;24.10
54306;BMP280;50434;45.188;5.712;2022-09-09T11:02:12;99321.06;;;24.16
54306;BMP280;50434;45.188;5.712;2022-09-09T11:04:48;99317.44;;;24.14
54306;BMP280;50434;45.188;5.712;2022-09-09T11:07:24;99308.91;;;24.23
54306;BMP280;50434;45.188;5.712;2022-09-09T11:09:58;99307.78;;;24.28
54306;BMP280;50434;45.188;5.712;2022-09-09T11:12:27;99303.53;;;24.27
54306;BMP280;50434;45.188;5.712;2022-09-09T11:15:08;99308.00;;;24.32
54306;BMP280;50434;45.188;5.712;2022-09-09T11:17:44;99302.50;;;24.34
54306;BMP280;50434;45.188;5.712;2022-09-09T11:20:13;99299.53;;;24.30
54306;BMP280;50434;45.188;5.712;2022-09-09T11:22:58;99298.91;;;24.32
54306;BMP280;50434;45.188;5.712;2022-09-09T11:25:39;99299.19;;;24.38
54306;BMP280;50434;45.188;5.712;2022-09-09T11:28:30;99300.97;;;24.45
54306;BMP280;50434;45.188;5.712;2022-09-09T11:31:19;99300.97;;;24.45
54306;BMP280;50434;45.188;5.712;2022-09-09T11:44:41;99312.06;;;24.56
54306;BMP280;50434;45.188;5.712;2022-09-09T11:47:23;99307.91;;;24.57
54306;BMP280;50434;45.188;5.712;2022-09-09T11:49:51;99310.88;;;24.61
54306;BMP280;50434;45.188;5.712;2022-09-09T11:57:37;99304.44;;;24.70
54306;BMP280;50434;45.188;5.712;2022-09-09T12:00:04;99307.59;;;24.65
54306;BMP280;50434;45.188;5.712;2022-09-09T12:02:30;99308.09;;;24.61
54306;BMP280;50434;45.188;5.712;2022-09-09T12:05:04;99318.38;;;24.70
54306;BMP280;50434;45.188;5.712;2022-09-09T12:07:41;99312.78;;;24.70
54306;BMP280;50434;45.188;5.712;2022-09-09T12:12:35;99305.13;;;24.71
54306;BMP280;50434;45.188;5.712;2022-09-09T12:17:41;99306.16;;;24.77
54306;BMP280;50434;45.188;5.712;2022-09-09T12:23:05;99316.16;;;24.82
54306;BMP280;50434;45.188;5.712;2022-09-09T12:28:18;99301.59;;;24.84
54306;BMP280;50434;45.188;5.712;2022-09-09T12:33:22;99298.78;;;24.98
54306;BMP280;50434;45.188;5.712;2022-09-09T12:35:55;99300.38;;;25.01
54306;BMP280;50434;45.188;5.712;2022-09-09T12:38:37;99300.38;;;25.01
54306;BMP280;50434;45.188;5.712;2022-09-09T12:41:03;99289.38;;;25.05
54306;BMP280;50434;45.188;5.712;2022-09-09T12:43:29;99297.75;;;25.05
54306;BMP280;50434;45.188;5.712;2022-09-09T12:46:03;99289.88;;;25.15
54306;BMP280;50434;45.188;5.712;2022-09-09T12:48:37;99290.78;;;25.19
54306;BMP280;50434;45.188;5.712;2022-09-09T12:51:05;99282.41;;;25.19
54306;BMP280;50434;45.188;5.712;2022-09-09T12:53:36;99290.28;;;25.23
54306;BMP280;50434;45.188;5.712;2022-09-09T12:56:08;99285.41;;;25.23
54306;BMP280;50434;45.188;5.712;2022-09-09T12:58:36;99285.22;;;25.19
54306;BMP280;50434;45.188;5.712;2022-09-09T13:01:04;99288.72;;;25.20
54306;BMP280;50434;45.188;5.712;2022-09-09T13:03:32;99295.16;;;25.22
54306;BMP280;50434;45.188;5.712;2022-09-09T13:06:10;99281.00;;;25.18
54306;BMP280;50434;45.188;5.712;2022-09-09T13:08:36;99286.06;;;25.22
54306;BMP280;50434;45.188;5.712;2022-09-09T13:11:07;99287.38;;;25.21
54306;BMP280;50434;45.188;5.712;2022-09-09T13:13:39;99279.00;;;25.21
54306;BMP280;50434;45.188;5.712;2022-09-09T13:16:15;99285.41;;;25.23
54306;BMP280;50434;45.188;5.712;2022-09-09T13:18:43;99277.03;;;25.23
54306;BMP280;50434;45.188;5.712;2022-09-09T13:21:08;99279.84;;;25.23
54306;BMP280;50434;45.188;5.712;2022-09-09T13:23:36;99277.66;;;25.22
54306;BMP280;50434;45.188;5.712;2022-09-09T13:26:23;99281.91;;;25.23
54306;BMP280;50434;45.188;5.712;2022-09-09T13:28:49;99281.91;;;25.23
54306;BMP280;50434;45.188;5.712;2022-09-09T13:31:28;99285.81;;;25.31
54306;BMP280;50434;45.188;5.712;2022-09-09T13:33:54;99283.66;;;25.30
54306;BMP280;50434;45.188;5.712;2022-09-09T13:36:31;99285.28;;;25.35
54306;BMP280;50434;45.188;5.712;2022-09-09T13:38:59;99269.78;;;25.32
54306;BMP280;50434;45.188;5.712;2022-09-09T13:41:29;99272.69;;;25.34
54306;BMP280;50434;45.188;5.712;2022-09-09T13:43:55;99273.38;;;25.34
54306;BMP280;50434;45.188;5.712;2022-09-09T13:46:36;99285.91;;;25.33
54306;BMP280;50434;45.188;5.712;2022-09-09T13:49:19;99283.13;;;25.33
54306;BMP280;50434;45.188;5.712;2022-09-09T13:51:50;99279.81;;;25.37
54306;BMP280;50434;45.188;5.712;2022-09-09T13:54:19;99281.34;;;25.40
54306;BMP280;50434;45.188;5.712;2022-09-09T13:56:47;99277.19;;;25.41
54306;BMP280;50434;45.188;5.712;2022-09-09T13:59:17;99270.91;;;25.40
54306;BMP280;50434;45.188;5.712;2022-09-09T14:01:44;99278.53;;;25.40
54306;BMP280;50434;45.188;5.712;2022-09-09T14:04:11;99277.81;;;25.39
54306;BMP280;50434;45.188;5.712;2022-09-09T14:06:36;99272.16;;;25.37
54306;BMP280;50434;45.188;5.712;2022-09-09T14:09:04;99276.47;;;25.40
54306;BMP280;50434;45.188;5.712;2022-09-09T14:11:30;99275.53;;;25.36
54306;BMP280;50434;45.188;5.712;2022-09-09T14:13:55;99285.66;;;25.43
54306;BMP280;50434;45.188;5.712;2022-09-09T14:16:21;99278.81;;;25.46
54306;BMP280;50434;45.188;5.712;2022-09-09T14:18:47;99278.13;;;25.45
54306;BMP280;50434;45.188;5.712;2022-09-09T14:21:13;99282.78;;;25.41
54306;BMP280;50434;45.188;5.712;2022-09-09T14:23:38;99276.56;;;25.42
54306;BMP280;50434;45.188;5.712;2022-09-09T14:26:05;99268.91;;;25.43
54306;BMP280;50434;45.188;5.712;2022-09-09T14:28:31;99271.16;;;25.46
54306;BMP280;50434;45.188;5.712;2022-09-09T14:30:59;99266.84;;;25.43
54306;BMP280;50434;45.188;5.712;2022-09-09T14:33:25;99267.47;;;25.42
54306;BMP280;50434;45.188;5.712;2022-09-09T14:36:02;99269.09;;;25.47
54306;BMP280;50434;45.188;5.712;2022-09-09T14:38:36;99267.84;;;25.50
54306;BMP280;50434;45.188;5.712;2022-09-09T14:41:10;99272.06;;;25.51
54306;BMP280;50434;45.188;5.712;2022-09-09T14:43:40;99273.63;;;25.54
54306;BMP280;50434;45.188;5.712;2022-09-09T14:46:11;99272.19;;;25.53
54306;BMP280;50434;45.188;5.712;2022-09-09T14:48:37;99268.75;;;25.54
54306;BMP280;50434;45.188;5.712;2022-09-09T14:51:14;99274.28;;;25.52
54306;BMP280;50434;45.188;5.712;2022-09-09T14:53:41;99270.00;;;25.51
54306;BMP280;50434;45.188;5.712;2022-09-09T14:56:10;99258.75;;;25.49
54306;BMP280;50434;45.188;5.712;2022-09-09T14:58:36;99266.59;;;25.53
54306;BMP280;50434;45.188;5.712;2022-09-09T15:01:08;99262.91;;;25.48
54306;BMP280;50434;45.188;5.712;2022-09-09T15:03:36;99265.69;;;25.48
54306;BMP280;50434;45.188;5.712;2022-09-09T15:06:12;99267.22;;;25.51
54306;BMP280;50434;45.188;5.712;2022-09-09T15:08:40;99261.00;;;25.53
54306;BMP280;50434;45.188;5.712;2022-09-09T15:11:06;99261.00;;;25.53
54306;BMP280;50434;45.188;5.712;2022-09-09T15:13:35;99262.66;;;25.58
54306;BMP280;50434;45.188;5.712;2022-09-09T15:16:09;99267.31;;;25.53
54306;BMP280;50434;45.188;5.712;2022-09-09T15:18:35;99260.38;;;25.54
54306;BMP280;50434;45.188;5.712;2022-09-09T15:21:05;99262.28;;;25.50
54306;BMP280;50434;45.188;5.712;2022-09-09T15:23:34;99265.88;;;25.52
54306;BMP280;50434;45.188;5.712;2022-09-09T15:26:00;99259.69;;;25.54
54306;BMP280;50434;45.188;5.712;2022-09-09T15:28:25;99260.31;;;25.52
54306;BMP280;50434;45.188;5.712;2022-09-09T15:30:52;99263.63;;;25.49
54306;BMP280;50434;45.188;5.712;2022-09-09T15:33:19;99257.94;;;25.47
54306;BMP280;50434;45.188;5.712;2022-09-09T15:35:44;99256.47;;;25.46
54306;BMP280;50434;45.188;5.712;2022-09-09T15:38:11;99258.13;;;25.51
54306;BMP280;50434;45.188;5.712;2022-09-09T15:40:40;99254.84;;;25.41
54306;BMP280;50434;45.188;5.712;2022-09-09T15:43:06;99248.56;;;25.40
54306;BMP280;50434;45.188;5.712;2022-09-09T15:45:32;99249.38;;;25.43
54306;BMP280;50434;45.188;5.712;2022-09-09T15:47:59;99244.22;;;25.37
54306;BMP280;50434;45.188;5.712;2022-09-09T15:50:25;99242.25;;;25.40
54306;BMP280;50434;45.188;5.712;2022-09-09T15:52:51;99241.63;;;25.41
54306;BMP280;50434;45.188;5.712;2022-09-09T15:55:18;99249.09;;;25.37
54306;BMP280;50434;45.188;5.712;2022-09-09T15:57:45;99248.56;;;25.40
54306;BMP280;50434;45.188;5.712;2022-09-09T16:00:11;99242.97;;;25.40
54306;BMP280;50434;45.188;5.712;2022-09-09T16:02:38;99245.03;;;25.40
54306;BMP280;50434;45.188;5.712;2022-09-09T16:05:03;99241.44;;;25.37
54306;BMP280;50434;45.188;5.712;2022-09-09T16:07:30;99234.50;;;25.38
54306;BMP280;50434;45.188;5.712;2022-09-09T16:09:55;99239.56;;;25.42
54306;BMP280;50434;45.188;5.712;2022-09-09T16:12:20;99235.94;;;25.39
54306;BMP280;50434;45.188;5.712;2022-09-09T16:14:46;99239.06;;;25.32
54306;BMP280;50434;45.188;5.712;2022-09-09T16:17:12;99236.09;;;25.28
54306;BMP280;50434;45.188;5.712;2022-09-09T16:19:37;99235.91;;;25.24
54306;BMP280;50434;45.188;5.712;2022-09-09T16:22:03;99237.34;;;25.25